Jim Hamilton L.B. Owens Airport
KCUB : rendu visible

Aérodrome :











RETROUVEZ-NOUS SUR...

 
LOGIN :

S'inscrire | Disclaimer

   EN    FR    IT 

 









Légende :    VFR   VFR Marginal   IFR   IFR Intensif   IFR Très Intensif
Visi : 
Plafond : 
>= 8 km
>= 3000ft
5 à 8 km
1000 à 3000 ft
1500m à 5 km
500 à 1000 ft
800 à 1500m
200 à 500 ft
< 800m
< 200 ft
Symboles :   Orages  Brouillard  Fortes neiges  Fortes précipitations  Vent > 20 kt






- Altitude de l'aérodrome : 193 ft


KCUB - Jim Hamilton L.B. Owens

DERNIER METAR :
  • 171753Z AUTO 10SM CLR 10/M09 A3063 RMK AO2 SLP372 T01001094 10106 20061 58009

METARs EXPIRÉS :
  • 171653Z AUTO VRB05KT 10SM CLR 09/M09 A3065 RMK AO2 SLP379 T00941089
  • 171553Z AUTO 05010G19KT 020V080 10SM CLR 08/M11 A3067 RMK AO2 SLP386 T00831106

TAF KCUB
Valide du 17 à 18h jusqu'au 18 à 18h UTC


171725Z 1718/1818 05008KT P6SM SCT120 BKN250
FM180000 05006KT P6SM BKN120
FM181100 05003KT P6SM BKN015



MET'MAP, la Météo Aéronautique d'un coup d'oeil ! - Copyright ORBIFLY Décembre 2007 - Disclaimer

ORBIFLY MET'MAP TEAM :

Programmation & Développement : Alexandra Zaïnal
Sur une idée originale de : Baudouin d'Aumeries
Assistance à la programmation : Marc-Olivier Méhu
Soutien technique & logistique : Manuel Goepfert

Contact : metmap@orbifly.com




SOURCES & CREDITS :

   NOAA       Earth
Advisory